KVIS

Visalia Municipal Airport

Visalia, California, USA
KVIS 221125Z 2212/2312 24004KT P6SM SKC TEMPO 2213/2217 3SM BR FM221900 VRB03KT P6SM SKC
Issued Valid From Valid To
Jan-22 @ 11:25 UTC
(6 hours ago)
Jan-22 @ 12:00 UTC
(5 hours ago)
Jan-23 @ 12:00 UTC
(in 19 hours)
Jan-22 @ 12:00 to Jan-22 @ 19:00
KVIS 221125Z 2212/2312 24004KT P6SM SKC
Wind Visibility Clouds
240° at 4 knots Greater than 6 miles
  • Clear skies
Temporary Jan-22 @ 13:00 to Jan-22 @ 17:00
TEMPO 2213/2217 3SM BR
Visibility Conditions
3 miles
  • Mist
From Jan-22 @ 19:00 to Jan-23 @ 12:00
FM221900 VRB03KT P6SM SKC
Wind Visibility Clouds
Variable at 3 knots Greater than 6 miles
  • Clear skies
KVIS 221125Z 2212/2312 24004KT P6SM SKC TEMPO 2213/2217 3SM BR FM221900 VRB03KT P6SM SKC
Issued Jan-22 @ 11:25 UTC
(6 hours ago)
Valid From Jan-22 @ 12:00 UTC
(5 hours ago)
Valid To Jan-23 @ 12:00 UTC
(in 19 hours)
Jan-22 @ 12:00 - Jan-22 @ 19:00
Wind Visibility
240° at 4 knots Greater than 6 miles
Clouds
  • Clear skies
Temporary Jan-22 @ 13:00 - Jan-22 @ 17:00
Conditions
  • Mist
From Jan-22 @ 19:00 - Jan-23 @ 12:00
Wind Visibility
Variable at 3 knots Greater than 6 miles
Clouds
  • Clear skies